createdAt,value
2019-03-27T00:02:23.656Z,2.74
2019-03-27T00:04:53.163Z,2.71
2019-03-27T00:10:30.534Z,2.70
2019-03-27T00:13:00.046Z,2.64
2019-03-27T00:15:30.788Z,2.56
2019-03-27T00:18:00.312Z,2.55
2019-03-27T00:20:29.819Z,2.52
2019-03-27T00:22:59.325Z,2.58
2019-03-27T00:25:28.842Z,2.77
2019-03-27T00:27:59.317Z,2.63
2019-03-27T00:30:28.856Z,2.67
2019-03-27T00:32:58.362Z,2.65
2019-03-27T00:35:27.886Z,2.64
2019-03-27T00:37:57.369Z,2.83
2019-03-27T00:41:00.208Z,2.56
2019-03-27T00:43:29.706Z,1.29
2019-03-27T00:45:59.197Z,2.52
2019-03-27T00:48:28.688Z,2.49
2019-03-27T00:50:58.181Z,2.48
2019-03-27T00:53:27.748Z,2.72
2019-03-27T00:55:57.254Z,2.71
2019-03-27T00:58:26.740Z,2.81
2019-03-27T01:01:19.880Z,2.60
2019-03-27T01:03:49.424Z,2.73
2019-03-27T01:06:18.902Z,2.47
2019-03-27T01:08:48.515Z,2.55
2019-03-27T01:11:18.058Z,2.69
2019-03-27T01:13:47.681Z,2.68
2019-03-27T01:16:17.202Z,3.00
2019-03-27T01:19:06.074Z,3.07
2019-03-27T01:21:35.575Z,3.16
2019-03-27T01:24:05.064Z,2.78
2019-03-27T01:26:34.613Z,2.90
2019-03-27T01:29:04.105Z,2.74
2019-03-27T01:31:33.612Z,2.83
2019-03-27T01:34:03.633Z,3.00
2019-03-27T01:36:33.147Z,3.18
2019-03-27T01:39:02.662Z,3.06
2019-03-27T01:41:32.160Z,2.98
2019-03-27T01:44:01.666Z,2.77
2019-03-27T01:46:31.771Z,2.73
2019-03-27T01:49:01.258Z,2.72
2019-03-27T01:51:30.764Z,2.65
2019-03-27T01:54:00.268Z,2.69
2019-03-27T01:56:29.772Z,2.80
2019-03-27T01:58:59.973Z,2.56
2019-03-27T02:01:29.469Z,2.71
2019-03-27T02:03:58.957Z,2.81
2019-03-27T02:06:28.462Z,2.85
2019-03-27T02:08:57.945Z,2.78
2019-03-27T02:11:28.351Z,2.77
2019-03-27T02:13:57.881Z,2.74
2019-03-27T02:16:27.358Z,2.50
2019-03-27T02:18:56.873Z,2.48
2019-03-27T02:21:27.484Z,2.42
2019-03-27T02:23:56.963Z,2.38
2019-03-27T02:26:26.475Z,2.36
2019-03-27T02:28:55.961Z,2.27
2019-03-27T02:31:25.466Z,2.24
2019-03-27T02:33:54.953Z,2.25
2019-03-27T02:36:24.600Z,2.32
2019-03-27T02:38:54.085Z,2.28
2019-03-27T02:41:23.583Z,2.31
2019-03-27T02:43:53.071Z,2.30
2019-03-27T02:46:25.108Z,2.33
2019-03-27T02:48:53.785Z,2.35
2019-03-27T02:51:23.487Z,2.27
2019-03-27T02:53:52.984Z,2.29
2019-03-27T02:56:22.470Z,2.28
2019-03-27T02:58:51.978Z,2.16
2019-03-27T03:01:21.483Z,2.03
2019-03-27T03:03:50.976Z,2.11
2019-03-27T03:06:20.524Z,2.20
2019-03-27T03:08:49.977Z,2.25
2019-03-27T03:11:19.537Z,2.73
2019-03-27T03:13:49.027Z,2.65
2019-03-27T03:16:18.523Z,2.30
2019-03-27T03:18:48.033Z,2.10
2019-03-27T03:21:17.537Z,2.05
2019-03-27T03:23:47.025Z,2.01
2019-03-27T03:26:16.557Z,1.96
2019-03-27T03:28:46.040Z,2.00
2019-03-27T03:31:15.586Z,2.08
2019-03-27T03:33:45.091Z,2.19
2019-03-27T03:36:14.655Z,2.28
2019-03-27T03:38:44.142Z,2.28
2019-03-27T03:41:13.664Z,2.13
2019-03-27T03:43:43.122Z,2.10
2019-03-27T03:46:12.723Z,2.01
2019-03-27T03:48:42.211Z,1.99
2019-03-27T03:51:11.870Z,1.97
2019-03-27T03:53:41.421Z,1.99
2019-03-27T03:56:11.810Z,1.92
2019-03-27T03:58:43.100Z,1.88
2019-03-27T04:01:13.083Z,1.90
2019-03-27T04:03:44.830Z,2.02
2019-03-27T04:06:14.364Z,2.06
2019-03-27T04:08:43.850Z,2.04
2019-03-27T04:11:13.411Z,2.52
2019-03-27T04:13:42.967Z,2.25
2019-03-27T04:16:12.477Z,2.31
2019-03-27T04:18:41.959Z,2.07
2019-03-27T04:21:49.832Z,1.98
2019-03-27T04:24:19.347Z,1.93
2019-03-27T04:26:48.858Z,1.91
2019-03-27T04:29:18.347Z,2.01
2019-03-27T04:31:47.882Z,1.92
2019-03-27T04:34:17.850Z,1.97
2019-03-27T04:36:47.382Z,1.99
2019-03-27T04:39:16.873Z,2.01
2019-03-27T04:41:46.418Z,2.05
2019-03-27T04:44:15.936Z,2.04
2019-03-27T04:46:46.136Z,2.01
2019-03-27T04:49:15.631Z,2.02
2019-03-27T04:51:45.128Z,2.44
2019-03-27T04:54:14.627Z,2.23
2019-03-27T04:56:44.143Z,2.28
2019-03-27T04:59:13.695Z,2.10
2019-03-27T05:01:43.256Z,1.93
2019-03-27T05:04:13.035Z,1.78
2019-03-27T05:06:42.542Z,1.71
2019-03-27T05:09:12.058Z,1.77
2019-03-27T05:11:42.401Z,1.84
2019-03-27T05:14:11.889Z,2.42
2019-03-27T05:17:00.725Z,2.32
2019-03-27T05:19:50.406Z,2.26
2019-03-27T05:22:19.939Z,1.39
2019-03-27T05:24:49.486Z,2.65
2019-03-27T05:27:18.984Z,2.69
2019-03-27T05:29:48.480Z,2.71
2019-03-27T05:32:18.040Z,2.60
2019-03-27T05:34:47.530Z,2.40
2019-03-27T05:37:17.056Z,2.56
2019-03-27T05:39:47.813Z,2.68
2019-03-27T05:42:36.690Z,2.83
2019-03-27T05:45:25.484Z,2.70
2019-03-27T05:47:59.929Z,2.97
2019-03-27T05:50:26.232Z,2.71
2019-03-27T05:52:55.742Z,2.79
2019-03-27T05:55:26.730Z,2.76
2019-03-27T05:57:56.223Z,3.01
2019-03-27T06:00:25.715Z,3.07
2019-03-27T06:02:55.263Z,2.83
2019-03-27T06:05:24.745Z,2.77
2019-03-27T06:07:54.586Z,3.14
2019-03-27T06:10:24.150Z,2.93
2019-03-27T06:12:54.351Z,2.82
2019-03-27T06:15:23.841Z,2.80
2019-03-27T06:17:53.347Z,2.78
2019-03-27T06:20:23.948Z,2.79
2019-03-27T06:22:53.475Z,2.85
2019-03-27T06:25:23.034Z,3.00
2019-03-27T06:27:52.544Z,2.94
2019-03-27T06:30:22.043Z,2.91
2019-03-27T06:32:52.150Z,3.00
2019-03-27T06:35:40.971Z,3.59
2019-03-27T06:38:10.474Z,4.03
2019-03-27T06:40:40.004Z,4.04
2019-03-27T06:43:09.463Z,3.88
2019-03-27T06:45:38.960Z,4.17
2019-03-27T06:48:08.547Z,4.23
2019-03-27T06:50:38.040Z,5.00
2019-03-27T06:53:07.647Z,4.70
2019-03-27T06:55:37.138Z,4.94
2019-03-27T06:58:06.673Z,5.03
2019-03-27T07:00:39.353Z,5.22
2019-03-27T07:03:10.079Z,5.30
2019-03-27T07:05:39.570Z,5.42
2019-03-27T07:08:09.088Z,5.25
2019-03-27T07:10:38.579Z,4.92
2019-03-27T07:13:08.091Z,5.43
2019-03-27T07:15:37.655Z,5.07
2019-03-27T07:18:07.238Z,5.15
2019-03-27T07:20:36.799Z,4.98
2019-03-27T07:23:06.433Z,5.87
2019-03-27T07:25:35.906Z,5.53
2019-03-27T07:28:05.426Z,6.63
2019-03-27T07:30:34.938Z,7.42
2019-03-27T07:33:04.589Z,7.83
2019-03-27T07:35:34.099Z,7.47
2019-03-27T07:38:03.682Z,6.66
2019-03-27T07:40:33.185Z,5.73
2019-03-27T07:43:02.703Z,5.98
2019-03-27T07:45:32.187Z,5.97
2019-03-27T07:48:01.707Z,5.65
2019-03-27T07:50:31.221Z,5.20
2019-03-27T07:53:00.749Z,4.86
2019-03-27T07:55:30.233Z,5.39
2019-03-27T07:57:59.739Z,6.45
2019-03-27T08:00:29.228Z,7.01
2019-03-27T08:02:58.734Z,7.33
2019-03-27T08:05:28.241Z,7.66
2019-03-27T08:07:57.794Z,7.06
2019-03-27T08:10:27.308Z,6.53
2019-03-27T08:12:56.833Z,6.22
2019-03-27T08:15:26.316Z,6.17
2019-03-27T08:17:55.805Z,5.60
2019-03-27T08:20:25.344Z,5.66
2019-03-27T08:22:54.854Z,5.70
2019-03-27T08:25:24.339Z,5.85
2019-03-27T08:27:53.825Z,6.05
2019-03-27T08:30:23.436Z,6.20
2019-03-27T08:32:52.924Z,6.12
2019-03-27T08:35:22.443Z,6.27
2019-03-27T08:37:51.934Z,6.55
2019-03-27T08:40:21.463Z,7.03
2019-03-27T08:42:50.932Z,6.96
2019-03-27T08:45:20.440Z,6.51
2019-03-27T08:47:49.933Z,7.52
2019-03-27T08:50:19.795Z,8.04
2019-03-27T08:52:49.305Z,7.61
2019-03-27T08:55:18.886Z,7.20
2019-03-27T08:58:07.762Z,6.83
2019-03-27T09:00:53.907Z,6.62
2019-03-27T09:03:23.471Z,6.31
2019-03-27T09:05:53.031Z,6.33
2019-03-27T09:08:22.550Z,6.29
2019-03-27T09:10:52.105Z,6.26
2019-03-27T09:13:21.685Z,6.30
2019-03-27T09:15:51.218Z,5.91
2019-03-27T09:18:20.749Z,6.03
2019-03-27T09:20:50.243Z,5.57
2019-03-27T09:23:19.756Z,5.80
2019-03-27T09:25:49.260Z,5.67
2019-03-27T09:28:18.780Z,6.11
2019-03-27T09:30:48.294Z,6.31
2019-03-27T09:33:17.761Z,6.28
2019-03-27T09:35:47.368Z,6.37
2019-03-27T09:38:36.271Z,6.41
2019-03-27T09:41:05.839Z,5.87
2019-03-27T09:43:36.270Z,6.48
2019-03-27T09:46:05.901Z,6.49
2019-03-27T09:48:35.410Z,6.39
2019-03-27T09:51:04.970Z,6.57
2019-03-27T09:53:34.548Z,6.55
2019-03-27T09:56:18.062Z,6.55
2019-03-27T09:58:35.331Z,6.06
2019-03-27T10:01:05.637Z,6.36
2019-03-27T10:03:35.147Z,7.48
2019-03-27T10:06:04.729Z,7.01
2019-03-27T10:08:34.225Z,7.07
2019-03-27T10:11:04.007Z,7.90
2019-03-27T10:13:33.584Z,7.72
2019-03-27T10:16:03.176Z,7.82
2019-03-27T10:18:32.685Z,7.47
2019-03-27T10:21:02.174Z,7.30
2019-03-27T10:23:32.620Z,8.21
2019-03-27T10:26:02.122Z,8.72
2019-03-27T10:28:31.693Z,9.86
2019-03-27T10:31:01.276Z,9.58
2019-03-27T10:33:30.876Z,8.68
2019-03-27T10:36:01.608Z,9.00
2019-03-27T10:38:31.118Z,8.82
2019-03-27T10:41:00.639Z,9.75
2019-03-27T10:43:30.148Z,11.28
2019-03-27T10:45:59.677Z,11.84
2019-03-27T10:48:30.175Z,12.29
2019-03-27T10:50:59.663Z,12.83
2019-03-27T10:53:29.174Z,11.90
2019-03-27T10:55:58.695Z,11.89
2019-03-27T10:58:28.328Z,10.77
2019-03-27T11:00:58.350Z,11.38
2019-03-27T11:03:27.854Z,10.29
2019-03-27T11:05:57.354Z,10.07
2019-03-27T11:08:26.859Z,9.58
2019-03-27T11:10:56.349Z,9.44
2019-03-27T11:13:26.577Z,9.20
2019-03-27T11:16:15.414Z,9.05
2019-03-27T11:18:44.911Z,9.20
2019-03-27T11:21:14.390Z,9.34
2019-03-27T11:23:43.895Z,9.03
2019-03-27T11:26:13.396Z,9.63
2019-03-27T11:28:42.941Z,10.39
2019-03-27T11:31:12.503Z,10.91
2019-03-27T11:33:42.005Z,11.28
2019-03-27T11:36:11.534Z,11.24
2019-03-27T11:38:41.061Z,12.04
2019-03-27T11:41:12.254Z,12.47
2019-03-27T11:43:54.269Z,11.74
2019-03-27T11:46:32.522Z,11.57
2019-03-27T11:49:02.020Z,10.39
2019-03-27T11:51:31.513Z,10.45
2019-03-27T11:54:01.015Z,10.58
2019-03-27T11:56:30.537Z,10.75
2019-03-27T11:59:00.057Z,9.95
2019-03-27T12:01:39.586Z,10.31
2019-03-27T12:04:00.754Z,11.18
2019-03-27T12:06:30.271Z,11.38
2019-03-27T12:08:59.772Z,10.37
2019-03-27T12:11:29.260Z,9.90
2019-03-27T12:13:58.772Z,8.96
2019-03-27T12:16:28.253Z,9.52
2019-03-27T12:18:57.826Z,10.03
2019-03-27T12:21:27.314Z,9.77
2019-03-27T12:23:56.831Z,9.77
2019-03-27T12:26:26.307Z,10.75
2019-03-27T12:28:55.812Z,10.09
2019-03-27T12:31:25.313Z,10.21
2019-03-27T12:33:54.812Z,10.78
2019-03-27T12:36:24.299Z,10.77
2019-03-27T12:38:53.799Z,10.91
2019-03-27T12:41:23.298Z,10.25
2019-03-27T12:43:52.803Z,10.40
2019-03-27T12:46:22.295Z,10.19
2019-03-27T12:48:51.814Z,9.40
2019-03-27T12:51:21.293Z,9.77
2019-03-27T12:53:50.827Z,9.42
2019-03-27T12:56:20.297Z,9.40
2019-03-27T12:58:49.856Z,9.53
2019-03-27T13:01:19.347Z,9.40
2019-03-27T13:03:48.835Z,9.25
2019-03-27T13:06:18.343Z,9.39
2019-03-27T13:08:49.629Z,8.35
2019-03-27T13:11:19.256Z,8.32
2019-03-27T13:13:48.789Z,8.42
2019-03-27T13:16:18.263Z,9.17
2019-03-27T13:18:47.771Z,9.59
2019-03-27T13:21:26.353Z,9.87
2019-03-27T13:23:48.855Z,9.89
2019-03-27T13:26:18.330Z,10.01
2019-03-27T13:28:49.289Z,9.78
2019-03-27T13:31:18.926Z,10.02
2019-03-27T13:33:50.417Z,9.89
2019-03-27T13:36:20.561Z,9.47
2019-03-27T13:38:50.528Z,9.56
2019-03-27T13:41:20.117Z,8.68
2019-03-27T13:43:49.747Z,8.61
2019-03-27T13:46:19.235Z,9.25
2019-03-27T13:48:49.644Z,9.00
2019-03-27T13:51:19.138Z,9.06
2019-03-27T13:53:48.644Z,9.21
2019-03-27T13:56:18.132Z,8.84
2019-03-27T13:58:47.636Z,8.06
2019-03-27T14:01:17.824Z,8.35
2019-03-27T14:03:47.326Z,9.05
2019-03-27T14:06:16.947Z,9.18
2019-03-27T14:08:46.469Z,8.85
2019-03-27T14:11:15.957Z,8.44
2019-03-27T14:13:45.966Z,8.91
2019-03-27T14:16:15.459Z,8.81
2019-03-27T14:18:44.945Z,8.36
2019-03-27T14:21:14.546Z,7.97
2019-03-27T14:23:44.036Z,7.96
2019-03-27T14:26:14.170Z,7.98
2019-03-27T14:28:43.689Z,8.03
2019-03-27T14:31:13.364Z,8.64
2019-03-27T14:33:42.878Z,9.20
2019-03-27T14:36:12.388Z,9.28
2019-03-27T14:38:42.332Z,9.17
2019-03-27T14:41:11.914Z,8.81
2019-03-27T14:43:42.286Z,8.97
2019-03-27T14:46:11.844Z,9.13
2019-03-27T14:48:41.332Z,9.28
2019-03-27T14:51:11.005Z,9.71
2019-03-27T14:53:40.475Z,9.74
2019-03-27T14:56:10.154Z,9.88
2019-03-27T14:58:39.633Z,8.94
2019-03-27T15:01:09.207Z,8.67
2019-03-27T15:03:38.759Z,8.57
2019-03-27T15:06:08.271Z,8.92
2019-03-27T15:08:37.787Z,8.59
2019-03-27T15:11:07.293Z,8.61
2019-03-27T15:13:36.882Z,8.64
2019-03-27T15:16:07.613Z,8.53
2019-03-27T15:18:37.125Z,8.79
2019-03-27T15:21:06.632Z,9.08
2019-03-27T15:23:36.111Z,8.91
2019-03-27T15:26:05.618Z,8.74
2019-03-27T15:28:36.144Z,8.41
2019-03-27T15:31:19.522Z,8.36
2019-03-27T15:33:37.049Z,8.10
2019-03-27T15:36:06.557Z,8.05
2019-03-27T15:38:36.069Z,7.97
2019-03-27T15:41:05.750Z,8.06
2019-03-27T15:43:35.287Z,8.38
2019-03-27T15:46:04.786Z,8.10
2019-03-27T15:48:34.336Z,7.89
2019-03-27T15:51:03.855Z,7.76
2019-03-27T15:53:33.347Z,7.92
2019-03-27T15:56:02.952Z,7.94
2019-03-27T15:58:32.583Z,8.02
2019-03-27T16:01:02.090Z,7.84
2019-03-27T16:03:31.598Z,7.70
2019-03-27T16:06:01.099Z,7.86
2019-03-27T16:08:30.594Z,7.80
2019-03-27T16:11:00.097Z,7.68
2019-03-27T16:13:29.613Z,7.53
2019-03-27T16:15:59.147Z,7.56
2019-03-27T16:18:28.647Z,7.47
2019-03-27T16:20:58.153Z,7.37
2019-03-27T16:23:27.725Z,7.26
2019-03-27T16:25:57.262Z,7.14
2019-03-27T16:28:26.740Z,7.07
2019-03-27T16:30:56.311Z,6.99
2019-03-27T16:33:25.848Z,6.96
2019-03-27T16:35:55.350Z,6.85
2019-03-27T16:38:24.946Z,6.78
2019-03-27T16:40:54.425Z,6.75
2019-03-27T16:43:23.924Z,6.78
2019-03-27T16:45:53.567Z,6.72
2019-03-27T16:48:23.064Z,6.68
2019-03-27T16:50:52.691Z,6.69
2019-03-27T16:53:22.204Z,6.64
2019-03-27T16:55:51.684Z,6.60
2019-03-27T16:58:21.199Z,6.52
2019-03-27T17:00:50.688Z,6.47
2019-03-27T17:03:20.206Z,6.47
2019-03-27T17:05:54.280Z,6.44
2019-03-27T17:08:21.064Z,6.42
2019-03-27T17:10:51.384Z,6.37
2019-03-27T17:13:20.969Z,6.34
2019-03-27T17:15:50.478Z,6.29
2019-03-27T17:18:20.007Z,6.27
2019-03-27T17:20:49.554Z,6.23
2019-03-27T17:23:20.300Z,6.20
2019-03-27T17:25:49.855Z,6.20
2019-03-27T17:28:19.381Z,6.18
2019-03-27T17:30:48.917Z,6.10
2019-03-27T17:33:18.434Z,6.03
2019-03-27T17:35:48.890Z,6.05
2019-03-27T17:38:18.400Z,6.10
2019-03-27T17:40:47.920Z,6.05
2019-03-27T17:43:17.430Z,6.04
2019-03-27T17:45:46.925Z,6.07
2019-03-27T17:48:17.101Z,6.34
2019-03-27T17:50:46.614Z,6.43
2019-03-27T17:53:16.174Z,6.10
2019-03-27T17:55:46.122Z,6.33
2019-03-27T17:58:15.640Z,5.96
2019-03-27T18:00:51.250Z,5.78
2019-03-27T18:03:21.234Z,5.70
2019-03-27T18:05:50.811Z,5.61
2019-03-27T18:08:20.396Z,5.59
2019-03-27T18:10:49.890Z,5.53
2019-03-27T18:13:19.404Z,5.56
2019-03-27T18:15:49.379Z,5.57
2019-03-27T18:18:18.928Z,5.59
2019-03-27T18:20:48.415Z,5.51
2019-03-27T18:23:17.930Z,5.49
2019-03-27T18:25:47.441Z,5.47
2019-03-27T18:28:18.432Z,5.91
2019-03-27T18:30:47.934Z,5.65
2019-03-27T18:33:17.616Z,5.52
2019-03-27T18:36:18.985Z,5.54
2019-03-27T18:38:48.526Z,5.63
2019-03-27T18:41:50.107Z,5.40
2019-03-27T18:44:19.701Z,5.34
2019-03-27T18:46:49.235Z,5.31
2019-03-27T18:49:18.710Z,5.31
2019-03-27T18:51:48.237Z,5.32
2019-03-27T18:54:17.748Z,5.29
2019-03-27T18:56:47.230Z,5.42
2019-03-27T18:59:16.896Z,5.33
2019-03-27T19:01:47.390Z,5.32
2019-03-27T19:04:16.902Z,5.27
2019-03-27T19:06:46.663Z,5.23
2019-03-27T19:09:16.181Z,5.53
2019-03-27T19:11:45.676Z,5.34
2019-03-27T19:14:15.200Z,5.25
2019-03-27T19:16:44.703Z,5.15
2019-03-27T19:19:14.222Z,5.59
2019-03-27T19:21:43.728Z,5.19
2019-03-27T19:24:16.543Z,5.05
2019-03-27T19:26:44.563Z,5.06
2019-03-27T19:29:33.419Z,4.96
2019-03-27T19:32:02.911Z,4.16
2019-03-27T19:34:51.870Z,4.83
2019-03-27T19:37:34.074Z,4.85
2019-03-27T19:40:04.407Z,4.86
2019-03-27T19:42:33.961Z,4.82
2019-03-27T19:45:04.723Z,4.80
2019-03-27T19:47:34.208Z,4.80
2019-03-27T19:50:04.973Z,4.83
2019-03-27T19:52:34.527Z,4.81
2019-03-27T19:55:04.857Z,4.80
2019-03-27T19:57:34.347Z,4.88
2019-03-27T20:00:08.915Z,4.81
2019-03-27T20:02:38.702Z,4.99
2019-03-27T20:08:16.029Z,4.77
2019-03-27T20:10:45.550Z,4.69
2019-03-27T20:13:15.063Z,4.66
2019-03-27T20:15:55.523Z,4.58
2019-03-27T20:18:37.550Z,4.52
2019-03-27T20:21:07.079Z,4.50
2019-03-27T20:23:36.603Z,4.48
2019-03-27T20:26:06.115Z,4.72
2019-03-27T20:28:35.639Z,4.45
2019-03-27T20:31:05.220Z,4.39
2019-03-27T20:33:37.994Z,4.36
2019-03-27T20:36:06.200Z,4.38
2019-03-27T20:38:35.772Z,4.36
2019-03-27T20:41:05.326Z,4.30
2019-03-27T20:43:34.833Z,4.36
2019-03-27T20:46:04.373Z,4.35
2019-03-27T20:48:33.875Z,4.31
2019-03-27T20:51:03.381Z,4.21
2019-03-27T20:53:32.892Z,4.15
2019-03-27T20:56:02.395Z,4.12
2019-03-27T20:58:31.910Z,4.08
2019-03-27T21:01:01.392Z,4.10
2019-03-27T21:03:30.904Z,4.54
2019-03-27T21:06:00.382Z,4.39
2019-03-27T21:08:29.896Z,4.81
2019-03-27T21:10:59.418Z,4.54
2019-03-27T21:13:28.933Z,4.51
2019-03-27T21:15:58.434Z,4.32
2019-03-27T21:18:27.939Z,4.26
2019-03-27T21:20:57.446Z,4.38
2019-03-27T21:23:26.960Z,4.23
2019-03-27T21:25:56.452Z,4.17
2019-03-27T21:28:25.942Z,4.17
2019-03-27T21:30:55.454Z,4.11
2019-03-27T21:33:24.960Z,4.08
2019-03-27T21:35:54.467Z,4.00
2019-03-27T21:38:23.962Z,3.99
2019-03-27T21:40:53.491Z,3.93
2019-03-27T21:43:22.973Z,3.98
2019-03-27T21:45:52.477Z,3.96
2019-03-27T21:48:21.977Z,3.92
2019-03-27T21:50:51.518Z,3.92
2019-03-27T21:53:21.042Z,3.93
2019-03-27T21:55:50.955Z,3.93
2019-03-27T21:58:20.453Z,3.98
2019-03-27T22:00:49.962Z,4.03
2019-03-27T22:03:19.513Z,4.04
2019-03-27T22:05:49.035Z,4.06
2019-03-27T22:08:18.548Z,4.12
2019-03-27T22:10:48.078Z,4.07
2019-03-27T22:13:17.561Z,4.05
2019-03-27T22:15:47.074Z,3.97
2019-03-27T22:18:16.568Z,3.93
2019-03-27T22:20:46.077Z,3.89
2019-03-27T22:23:15.611Z,3.89
2019-03-27T22:25:45.148Z,3.85
2019-03-27T22:28:14.658Z,3.84
2019-03-27T22:30:44.191Z,4.32
2019-03-27T22:33:13.676Z,4.34
2019-03-27T22:35:43.183Z,4.03
2019-03-27T22:38:12.684Z,3.88
2019-03-27T22:40:42.202Z,3.75
2019-03-27T22:43:11.754Z,3.78
2019-03-27T22:45:41.288Z,3.83
2019-03-27T22:48:12.042Z,3.86
2019-03-27T22:50:41.548Z,3.84
2019-03-27T22:53:11.066Z,3.68
2019-03-27T22:55:49.593Z,3.56
2019-03-27T22:58:13.075Z,3.48
2019-03-27T23:00:50.124Z,3.48
2019-03-27T23:03:19.805Z,3.47
2019-03-27T23:05:49.492Z,3.45
2019-03-27T23:08:19.067Z,3.53
2019-03-27T23:10:48.682Z,3.55
2019-03-27T23:13:18.174Z,3.53
2019-03-27T23:15:47.755Z,3.56
2019-03-27T23:18:17.285Z,3.59
2019-03-27T23:20:46.822Z,3.61
2019-03-27T23:23:16.331Z,3.67
2019-03-27T23:25:45.914Z,3.72
2019-03-27T23:28:15.428Z,3.84
2019-03-27T23:30:44.936Z,3.80
2019-03-27T23:33:14.497Z,3.92
2019-03-27T23:35:44.586Z,3.85
2019-03-27T23:38:14.182Z,3.83
2019-03-27T23:40:43.687Z,3.79
2019-03-27T23:43:13.943Z,3.90
2019-03-27T23:45:43.458Z,3.75
2019-03-27T23:48:12.952Z,3.98
2019-03-27T23:50:42.461Z,3.82
2019-03-27T23:53:11.970Z,3.78
2019-03-27T23:55:42.203Z,4.01
2019-03-27T23:58:11.831Z,3.85
